sensor_id;sensor_type;location;lat;lon;timestamp;pressure;altitude;pressure_sealevel;temperature;humidity
21129;BME280;10722;51.910;8.352;2022-09-12T00:01:50;101073.56;;;14.22;100.00
21129;BME280;10722;51.910;8.352;2022-09-12T00:04:35;101068.38;;;14.23;100.00
21129;BME280;10722;51.910;8.352;2022-09-12T00:07:20;101070.88;;;14.08;100.00
21129;BME280;10722;51.910;8.352;2022-09-12T00:10:06;101070.81;;;14.03;100.00
21129;BME280;10722;51.910;8.352;2022-09-12T00:12:52;101075.94;;;13.96;100.00
21129;BME280;10722;51.910;8.352;2022-09-12T00:15:38;101073.22;;;13.83;100.00
21129;BME280;10722;51.910;8.352;2022-09-12T00:18:24;101079.31;;;13.85;100.00
21129;BME280;10722;51.910;8.352;2022-09-12T00:21:09;101068.97;;;13.92;100.00
21129;BME280;10722;51.910;8.352;2022-09-12T00:23:55;101060.19;;;13.82;100.00
21129;BME280;10722;51.910;8.352;2022-09-12T00:26:40;101075.03;;;13.92;100.00
21129;BME280;10722;51.910;8.352;2022-09-12T00:29:25;101070.69;;;13.89;100.00
21129;BME280;10722;51.910;8.352;2022-09-12T00:32:10;101071.56;;;13.92;100.00
21129;BME280;10722;51.910;8.352;2022-09-12T00:34:56;101072.09;;;13.60;100.00
21129;BME280;10722;51.910;8.352;2022-09-12T00:37:41;101060.81;;;13.56;100.00
21129;BME280;10722;51.910;8.352;2022-09-12T00:40:26;101061.59;;;13.48;100.00
21129;BME280;10722;51.910;8.352;2022-09-12T00:43:14;101067.94;;;13.74;100.00
21129;BME280;10722;51.910;8.352;2022-09-12T00:49:25;101062.59;;;13.60;100.00
21129;BME280;10722;51.910;8.352;2022-09-12T00:52:21;101059.84;;;13.47;100.00
21129;BME280;10722;51.910;8.352;2022-09-12T00:55:16;101057.19;;;13.40;100.00
21129;BME280;10722;51.910;8.352;2022-09-12T00:58:13;101061.53;;;13.41;100.00
21129;BME280;10722;51.910;8.352;2022-09-12T01:01:00;101065.00;;;13.40;100.00
21129;BME280;10722;51.910;8.352;2022-09-12T01:03:46;101062.38;;;13.40;100.00
21129;BME280;10722;51.910;8.352;2022-09-12T01:06:35;101062.31;;;13.36;100.00
21129;BME280;10722;51.910;8.352;2022-09-12T01:09:24;101057.78;;;13.21;100.00
21129;BME280;10722;51.910;8.352;2022-09-12T01:12:10;101051.75;;;13.23;100.00
21129;BME280;10722;51.910;8.352;2022-09-12T01:14:56;101058.66;;;13.21;100.00
21129;BME280;10722;51.910;8.352;2022-09-12T01:24:24;101052.50;;;13.15;100.00
21129;BME280;10722;51.910;8.352;2022-09-12T01:27:16;101054.28;;;13.19;100.00
21129;BME280;10722;51.910;8.352;2022-09-12T01:36:50;101038.59;;;13.10;100.00
21129;BME280;10722;51.910;8.352;2022-09-12T01:39:26;101031.13;;;13.36;100.00
21129;BME280;10722;51.910;8.352;2022-09-12T01:45:32;101023.66;;;12.90;100.00
21129;BME280;10722;51.910;8.352;2022-09-12T01:48:32;101030.63;;;12.96;100.00
21129;BME280;10722;51.910;8.352;2022-09-12T01:51:32;101024.31;;;12.77;100.00
21129;BME280;10722;51.910;8.352;2022-09-12T01:54:28;101025.16;;;12.74;100.00
21129;BME280;10722;51.910;8.352;2022-09-12T01:57:27;101021.78;;;12.80;100.00
21129;BME280;10722;51.910;8.352;2022-09-12T02:00:14;101014.72;;;12.70;100.00
21129;BME280;10722;51.910;8.352;2022-09-12T02:03:12;101018.97;;;12.65;100.00
21129;BME280;10722;51.910;8.352;2022-09-12T02:06:05;101005.13;;;12.64;100.00
21129;BME280;10722;51.910;8.352;2022-09-12T02:08:57;101012.16;;;12.73;100.00
21129;BME280;10722;51.910;8.352;2022-09-12T02:11:45;101014.69;;;12.68;100.00
21129;BME280;10722;51.910;8.352;2022-09-12T02:14:39;101009.50;;;12.68;100.00
21129;BME280;10722;51.910;8.352;2022-09-12T02:17:28;101013.03;;;12.73;100.00
21129;BME280;10722;51.910;8.352;2022-09-12T02:20:35;101007.03;;;12.76;100.00
21129;BME280;10722;51.910;8.352;2022-09-12T02:23:33;101008.69;;;12.71;100.00
21129;BME280;10722;51.910;8.352;2022-09-12T02:26:26;101004.44;;;12.77;100.00
21129;BME280;10722;51.910;8.352;2022-09-12T02:29:12;101012.22;;;12.76;100.00
21129;BME280;10722;51.910;8.352;2022-09-12T02:31:59;101013.94;;;12.77;100.00
21129;BME280;10722;51.910;8.352;2022-09-12T02:34:53;101010.38;;;12.69;100.00
21129;BME280;10722;51.910;8.352;2022-09-12T02:40:40;101003.34;;;12.59;100.00
21129;BME280;10722;51.910;8.352;2022-09-12T02:43:25;101004.97;;;12.53;100.00
21129;BME280;10722;51.910;8.352;2022-09-12T02:46:16;100999.75;;;12.52;100.00
21129;BME280;10722;51.910;8.352;2022-09-12T02:49:02;101004.16;;;12.57;100.00
21129;BME280;10722;51.910;8.352;2022-09-12T02:51:48;100990.25;;;12.52;100.00
21129;BME280;10722;51.910;8.352;2022-09-12T02:54:33;100998.97;;;12.57;100.00
21129;BME280;10722;51.910;8.352;2022-09-12T02:57:20;100991.97;;;12.50;100.00
21129;BME280;10722;51.910;8.352;2022-09-12T03:00:08;100989.34;;;12.47;100.00
21129;BME280;10722;51.910;8.352;2022-09-12T03:03:19;100983.28;;;12.50;100.00
21129;BME280;10722;51.910;8.352;2022-09-12T03:06:22;100980.97;;;12.09;100.00
21129;BME280;10722;51.910;8.352;2022-09-12T03:09:36;100990.13;;;11.87;100.00
21129;BME280;10722;51.910;8.352;2022-09-12T03:25:02;100979.34;;;12.14;100.00
21129;BME280;10722;51.910;8.352;2022-09-12T03:28:00;100977.56;;;12.11;100.00
21129;BME280;10722;51.910;8.352;2022-09-12T03:30:48;100976.81;;;12.22;100.00
21129;BME280;10722;51.910;8.352;2022-09-12T03:33:33;100979.50;;;12.25;100.00
21129;BME280;10722;51.910;8.352;2022-09-12T03:36:22;100975.22;;;12.30;100.00
21129;BME280;10722;51.910;8.352;2022-09-12T03:39:07;100973.41;;;12.23;100.00
21129;BME280;10722;51.910;8.352;2022-09-12T03:41:54;100974.19;;;12.17;100.00
21129;BME280;10722;51.910;8.352;2022-09-12T03:44:39;100969.81;;;12.15;100.00
21129;BME280;10722;51.910;8.352;2022-09-12T03:47:24;100979.25;;;12.08;100.00
21129;BME280;10722;51.910;8.352;2022-09-12T03:50:09;100974.41;;;12.32;100.00
21129;BME280;10722;51.910;8.352;2022-09-12T03:52:55;100976.94;;;12.28;100.00
21129;BME280;10722;51.910;8.352;2022-09-12T03:55:42;100974.03;;;12.06;100.00
21129;BME280;10722;51.910;8.352;2022-09-12T03:58:29;100973.84;;;11.94;100.00
21129;BME280;10722;51.910;8.352;2022-09-12T04:01:17;100967.69;;;11.89;100.00
21129;BME280;10722;51.910;8.352;2022-09-12T04:04:02;100973.53;;;11.79;100.00
21129;BME280;10722;51.910;8.352;2022-09-12T04:06:47;100984.22;;;11.96;100.00
21129;BME280;10722;51.910;8.352;2022-09-12T04:09:32;100983.84;;;11.76;100.00
21129;BME280;10722;51.910;8.352;2022-09-12T04:12:18;100985.63;;;11.78;100.00
21129;BME280;10722;51.910;8.352;2022-09-12T04:15:05;100989.81;;;11.69;100.00
21129;BME280;10722;51.910;8.352;2022-09-12T04:17:50;100986.44;;;11.76;100.00
21129;BME280;10722;51.910;8.352;2022-09-12T04:20:36;100970.81;;;11.70;100.00
21129;BME280;10722;51.910;8.352;2022-09-12T04:23:21;100981.34;;;11.80;100.00
21129;BME280;10722;51.910;8.352;2022-09-12T04:26:06;100979.75;;;11.87;100.00
21129;BME280;10722;51.910;8.352;2022-09-12T04:28:53;100976.09;;;11.76;100.00
21129;BME280;10722;51.910;8.352;2022-09-12T04:31:38;100965.56;;;11.66;100.00
21129;BME280;10722;51.910;8.352;2022-09-12T04:34:23;100976.06;;;11.74;100.00
21129;BME280;10722;51.910;8.352;2022-09-12T04:37:08;100981.34;;;11.80;100.00
21129;BME280;10722;51.910;8.352;2022-09-12T04:39:54;100982.84;;;11.66;100.00
21129;BME280;10722;51.910;8.352;2022-09-12T04:42:39;100980.34;;;11.72;100.00
21129;BME280;10722;51.910;8.352;2022-09-12T04:45:24;100972.50;;;11.67;100.00
21129;BME280;10722;51.910;8.352;2022-09-12T04:48:10;100971.66;;;11.70;100.00
21129;BME280;10722;51.910;8.352;2022-09-12T04:50:55;100968.06;;;11.62;100.00
21129;BME280;10722;51.910;8.352;2022-09-12T04:53:41;100971.66;;;11.70;100.00
21129;BME280;10722;51.910;8.352;2022-09-12T04:56:28;100970.13;;;11.81;100.00
21129;BME280;10722;51.910;8.352;2022-09-12T04:59:15;100971.00;;;11.82;100.00
21129;BME280;10722;51.910;8.352;2022-09-12T05:02:01;100979.19;;;11.56;100.00
21129;BME280;10722;51.910;8.352;2022-09-12T05:04:46;100959.75;;;11.31;100.00
21129;BME280;10722;51.910;8.352;2022-09-12T05:07:31;100969.25;;;11.29;100.00
21129;BME280;10722;51.910;8.352;2022-09-12T05:10:16;100968.53;;;11.39;100.00
21129;BME280;10722;51.910;8.352;2022-09-12T05:13:01;100974.78;;;11.51;100.00
21129;BME280;10722;51.910;8.352;2022-09-12T05:15:55;100974.16;;;11.64;100.00
21129;BME280;10722;51.910;8.352;2022-09-12T05:18:42;100963.59;;;11.52;100.00
21129;BME280;10722;51.910;8.352;2022-09-12T05:21:28;100974.16;;;11.64;100.00
21129;BME280;10722;51.910;8.352;2022-09-12T05:24:13;100966.34;;;11.62;100.00
21129;BME280;10722;51.910;8.352;2022-09-12T05:26:58;100971.66;;;11.70;100.00
21129;BME280;10722;51.910;8.352;2022-09-12T05:29:43;100970.09;;;11.78;100.00
21129;BME280;10722;51.910;8.352;2022-09-12T05:32:30;100963.16;;;11.77;100.00
21129;BME280;10722;51.910;8.352;2022-09-12T05:35:15;100958.06;;;11.83;100.00
21129;BME280;10722;51.910;8.352;2022-09-12T05:38:00;100963.66;;;12.06;100.00
21129;BME280;10722;51.910;8.352;2022-09-12T05:40:45;100963.69;;;12.09;100.00
21129;BME280;10722;51.910;8.352;2022-09-12T05:43:32;100957.75;;;12.17;100.00
21129;BME280;10722;51.910;8.352;2022-09-12T05:46:19;100955.25;;;12.23;100.00
21129;BME280;10722;51.910;8.352;2022-09-12T05:49:07;100948.59;;;12.43;100.00
21129;BME280;10722;51.910;8.352;2022-09-12T05:51:53;100962.53;;;12.48;100.00
21129;BME280;10722;51.910;8.352;2022-09-12T05:54:38;100958.28;;;12.53;100.00
21129;BME280;10722;51.910;8.352;2022-09-12T05:57:23;100960.22;;;12.70;100.00
21129;BME280;10722;51.910;8.352;2022-09-12T06:00:09;100961.28;;;12.89;100.00
21129;BME280;10722;51.910;8.352;2022-09-12T06:02:54;100957.06;;;12.97;100.00
21129;BME280;10722;51.910;8.352;2022-09-12T06:05:40;100958.91;;;13.09;100.00
21129;BME280;10722;51.910;8.352;2022-09-12T06:08:25;100948.50;;;13.04;100.00
21129;BME280;10722;51.910;8.352;2022-09-12T06:11:12;100950.31;;;13.14;100.00
21129;BME280;10722;51.910;8.352;2022-09-12T06:13:59;100952.28;;;13.32;100.00
21129;BME280;10722;51.910;8.352;2022-09-12T06:16:44;100944.69;;;13.57;100.00
21129;BME280;10722;51.910;8.352;2022-09-12T06:19:30;100940.38;;;13.59;100.00
21129;BME280;10722;51.910;8.352;2022-09-12T06:22:15;100924.88;;;13.71;100.00
21129;BME280;10722;51.910;8.352;2022-09-12T06:25:00;100924.28;;;14.06;100.00
21129;BME280;10722;51.910;8.352;2022-09-12T06:27:45;100917.41;;;14.17;100.00
21129;BME280;10722;51.910;8.352;2022-09-12T06:30:30;100912.31;;;14.37;100.00
21129;BME280;10722;51.910;8.352;2022-09-12T06:33:16;100923.75;;;14.68;100.00
21129;BME280;10722;51.910;8.352;2022-09-12T06:36:06;100910.84;;;14.96;100.00
21129;BME280;10722;51.910;8.352;2022-09-12T06:39:01;100910.00;;;15.12;98.49
21129;BME280;10722;51.910;8.352;2022-09-12T06:41:49;100912.59;;;15.14;98.80
21129;BME280;10722;51.910;8.352;2022-09-12T06:44:34;100904.81;;;15.24;97.13
21129;BME280;10722;51.910;8.352;2022-09-12T06:47:19;100911.78;;;15.49;96.62
21129;BME280;10722;51.910;8.352;2022-09-12T06:50:05;100900.44;;;15.11;96.36
21129;BME280;10722;51.910;8.352;2022-09-12T06:52:50;100905.69;;;15.50;97.02
21129;BME280;10722;51.910;8.352;2022-09-12T06:55:36;100910.03;;;15.49;95.61
21129;BME280;10722;51.910;8.352;2022-09-12T06:58:21;100906.56;;;15.53;96.46
21129;BME280;10722;51.910;8.352;2022-09-12T07:01:18;100903.06;;;15.99;95.56
21129;BME280;10722;51.910;8.352;2022-09-12T07:04:04;100874.25;;;16.34;91.69
21129;BME280;10722;51.910;8.352;2022-09-12T07:06:49;100868.19;;;16.24;90.95
21129;BME280;10722;51.910;8.352;2022-09-12T07:09:35;100875.16;;;16.25;91.01
21129;BME280;10722;51.910;8.352;2022-09-12T07:12:20;100889.06;;;16.36;91.13
21129;BME280;10722;51.910;8.352;2022-09-12T07:15:05;100877.47;;;16.96;89.95
21129;BME280;10722;51.910;8.352;2022-09-12T07:17:50;100868.69;;;17.08;88.11
21129;BME280;10722;51.910;8.352;2022-09-12T07:20:35;100849.19;;;17.48;86.39
21129;BME280;10722;51.910;8.352;2022-09-12T07:23:21;100843.28;;;18.14;85.33
21129;BME280;10722;51.910;8.352;2022-09-12T07:26:09;100842.28;;;18.28;83.08
21129;BME280;10722;51.910;8.352;2022-09-12T07:28:55;100844.97;;;18.22;82.36
21129;BME280;10722;51.910;8.352;2022-09-12T07:32:00;100841.06;;;18.53;81.46
21129;BME280;10722;51.910;8.352;2022-09-12T07:34:46;100797.63;;;18.99;77.65
21129;BME280;10722;51.910;8.352;2022-09-12T07:37:30;100844.25;;;18.77;79.42
21129;BME280;10722;51.910;8.352;2022-09-12T07:40:16;100836.44;;;18.75;79.04
21129;BME280;10722;51.910;8.352;2022-09-12T07:43:01;100858.41;;;18.62;79.81
21129;BME280;10722;51.910;8.352;2022-09-12T07:45:47;100832.34;;;18.51;78.54
21129;BME280;10722;51.910;8.352;2022-09-12T07:48:32;100891.78;;;18.48;81.59
21129;BME280;10722;51.910;8.352;2022-09-12T07:51:18;100866.16;;;18.71;80.89
21129;BME280;10722;51.910;8.352;2022-09-12T07:54:07;100885.59;;;18.53;81.83
21129;BME280;10722;51.910;8.352;2022-09-12T07:56:53;100874.44;;;18.39;81.72
21129;BME280;10722;51.910;8.352;2022-09-12T07:59:38;100878.13;;;18.23;81.84
21129;BME280;10722;51.910;8.352;2022-09-12T08:02:37;100873.69;;;18.26;81.41
21129;BME280;10722;51.910;8.352;2022-09-12T08:05:22;100875.13;;;18.52;81.39
21129;BME280;10722;51.910;8.352;2022-09-12T08:08:07;100867.00;;;18.75;80.77
21129;BME280;10722;51.910;8.352;2022-09-12T08:10:56;100869.16;;;19.07;80.15
21129;BME280;10722;51.910;8.352;2022-09-12T08:13:42;100855.25;;;19.02;78.64
21129;BME280;10722;51.910;8.352;2022-09-12T08:16:29;100889.47;;;18.91;80.68
21129;BME280;10722;51.910;8.352;2022-09-12T08:19:15;100843.75;;;19.12;78.21
21129;BME280;10722;51.910;8.352;2022-09-12T08:22:00;100867.47;;;19.03;79.43
21129;BME280;10722;51.910;8.352;2022-09-12T08:24:45;100898.44;;;18.72;80.92
21129;BME280;10722;51.910;8.352;2022-09-12T08:27:30;100908.31;;;18.51;81.76
21129;BME280;10722;51.910;8.352;2022-09-12T08:30:15;100919.84;;;18.38;83.09
21129;BME280;10722;51.910;8.352;2022-09-12T08:33:00;100900.03;;;18.14;82.85
21129;BME280;10722;51.910;8.352;2022-09-12T08:35:46;100917.34;;;18.27;84.44
21129;BME280;10722;51.910;8.352;2022-09-12T08:38:31;100921.59;;;18.39;84.94
21129;BME280;10722;51.910;8.352;2022-09-12T08:47:35;100894.06;;;18.72;83.49
21129;BME280;10722;51.910;8.352;2022-09-12T08:50:22;100872.25;;;18.72;81.55
21129;BME280;10722;51.910;8.352;2022-09-12T08:53:19;100902.22;;;18.51;83.58
21129;BME280;10722;51.910;8.352;2022-09-12T08:56:06;100925.53;;;18.72;85.62
21129;BME280;10722;51.910;8.352;2022-09-12T08:58:52;100878.00;;;19.00;82.68
21129;BME280;10722;51.910;8.352;2022-09-12T09:01:42;100865.78;;;18.99;80.61
21129;BME280;10722;51.910;8.352;2022-09-12T09:10:58;100855.34;;;19.50;79.82
21129;BME280;10722;51.910;8.352;2022-09-12T09:16:39;100888.59;;;19.48;81.03
21129;BME280;10722;51.910;8.352;2022-09-12T09:19:29;100863.09;;;19.58;79.65
21129;BME280;10722;51.910;8.352;2022-09-12T09:25:24;100875.69;;;19.36;80.67
21129;BME280;10722;51.910;8.352;2022-09-12T09:28:15;100852.66;;;19.53;80.05
21129;BME280;10722;51.910;8.352;2022-09-12T09:31:03;100850.78;;;19.61;78.74
21129;BME280;10722;51.910;8.352;2022-09-12T09:33:51;100840.13;;;19.70;77.65
21129;BME280;10722;51.910;8.352;2022-09-12T09:45:16;100847.94;;;19.74;78.59
21129;BME280;10722;51.910;8.352;2022-09-12T09:50:56;100846.22;;;19.74;77.96
21129;BME280;10722;51.910;8.352;2022-09-12T09:54:27;100878.16;;;19.96;79.55
21129;BME280;10722;51.910;8.352;2022-09-12T09:56:51;100836.72;;;20.12;77.38
21129;BME280;10722;51.910;8.352;2022-09-12T09:59:36;100837.44;;;19.74;76.92
21129;BME280;10722;51.910;8.352;2022-09-12T10:02:21;100851.63;;;19.62;77.97
21129;BME280;10722;51.910;8.352;2022-09-12T10:05:15;100863.00;;;19.65;78.42
21129;BME280;10722;51.910;8.352;2022-09-12T10:08:01;100858.56;;;19.67;78.82
21129;BME280;10722;51.910;8.352;2022-09-12T10:10:52;100858.25;;;19.84;78.22
21129;BME280;10722;51.910;8.352;2022-09-12T10:16:49;100852.53;;;20.09;77.45
21129;BME280;10722;51.910;8.352;2022-09-12T10:19:37;100840.84;;;20.24;76.67
21129;BME280;10722;51.910;8.352;2022-09-12T10:22:25;100823.97;;;19.93;76.60
21129;BME280;10722;51.910;8.352;2022-09-12T10:25:14;100836.22;;;19.43;77.28
21129;BME280;10722;51.910;8.352;2022-09-12T10:28:02;100857.03;;;19.54;78.91
21129;BME280;10722;51.910;8.352;2022-09-12T10:30:51;100841.81;;;19.75;77.69
21129;BME280;10722;51.910;8.352;2022-09-12T10:33:43;100805.72;;;19.86;75.69
21129;BME280;10722;51.910;8.352;2022-09-12T10:36:35;100815.66;;;20.15;76.18
21129;BME280;10722;51.910;8.352;2022-09-12T10:39:21;100828.28;;;20.38;76.95
21129;BME280;10722;51.910;8.352;2022-09-12T10:42:10;100786.41;;;20.72;74.66
21129;BME280;10722;51.910;8.352;2022-09-12T10:44:58;100769.41;;;20.87;73.68
21129;BME280;10722;51.910;8.352;2022-09-12T10:47:44;100768.31;;;20.96;72.73
21129;BME280;10722;51.910;8.352;2022-09-12T10:50:39;100749.56;;;21.10;71.96
21129;BME280;10722;51.910;8.352;2022-09-12T10:53:26;100713.81;;;21.01;69.53
21129;BME280;10722;51.910;8.352;2022-09-12T10:59:19;100702.31;;;21.05;68.48
21129;BME280;10722;51.910;8.352;2022-09-12T11:11:11;100711.91;;;21.06;68.58
21129;BME280;10722;51.910;8.352;2022-09-12T11:17:32;100729.28;;;21.47;68.50
21129;BME280;10722;51.910;8.352;2022-09-12T11:35:33;100680.59;;;21.62;64.80
21129;BME280;10722;51.910;8.352;2022-09-12T11:41:40;100703.25;;;21.98;65.43
21129;BME280;10722;51.910;8.352;2022-09-12T11:44:32;100700.94;;;22.16;65.26
21129;BME280;10722;51.910;8.352;2022-09-12T11:47:25;100663.31;;;22.11;63.46
21129;BME280;10722;51.910;8.352;2022-09-12T11:50:30;100701.94;;;22.12;64.68
21129;BME280;10722;51.910;8.352;2022-09-12T11:53:21;100664.75;;;22.23;62.74
21129;BME280;10722;51.910;8.352;2022-09-12T11:56:16;100677.13;;;22.48;63.08
21129;BME280;10722;51.910;8.352;2022-09-12T11:59:10;100633.22;;;22.20;61.10
21129;BME280;10722;51.910;8.352;2022-09-12T12:01:58;100670.09;;;22.48;61.83
21129;BME280;10722;51.910;8.352;2022-09-12T12:05:01;100629.19;;;23.38;59.18
21129;BME280;10722;51.910;8.352;2022-09-12T12:13:46;100645.59;;;22.98;58.82
21129;BME280;10722;51.910;8.352;2022-09-12T12:16:36;100647.50;;;23.43;58.31
21129;BME280;10722;51.910;8.352;2022-09-12T12:19:33;100645.94;;;23.37;58.33
21129;BME280;10722;51.910;8.352;2022-09-12T12:22:22;100608.88;;;24.52;56.05
21129;BME280;10722;51.910;8.352;2022-09-12T12:25:24;100631.03;;;24.05;57.23
21129;BME280;10722;51.910;8.352;2022-09-12T12:31:27;100580.13;;;24.85;53.81
21129;BME280;10722;51.910;8.352;2022-09-12T12:34:25;100592.97;;;25.53;52.93
21129;BME280;10722;51.910;8.352;2022-09-12T12:40:21;100615.16;;;26.24;51.95
21129;BME280;10722;51.910;8.352;2022-09-12T12:43:28;100629.50;;;26.03;52.53
21129;BME280;10722;51.910;8.352;2022-09-12T12:46:19;100606.50;;;26.74;50.38
21129;BME280;10722;51.910;8.352;2022-09-12T12:49:10;100591.59;;;25.82;50.88
21129;BME280;10722;51.910;8.352;2022-09-12T12:52:03;100624.63;;;25.56;52.36
21129;BME280;10722;51.910;8.352;2022-09-12T12:54:51;100654.69;;;24.52;55.12
21129;BME280;10722;51.910;8.352;2022-09-12T12:57:51;100632.38;;;24.37;54.70
21129;BME280;10722;51.910;8.352;2022-09-12T13:00:39;100662.72;;;23.60;57.30
21129;BME280;10722;51.910;8.352;2022-09-12T13:03:29;100669.63;;;23.62;57.74
21129;BME280;10722;51.910;8.352;2022-09-12T13:06:31;100676.81;;;24.06;57.75
21129;BME280;10722;51.910;8.352;2022-09-12T13:09:47;100621.91;;;25.57;54.36
21129;BME280;10722;51.910;8.352;2022-09-12T13:12:43;100590.53;;;25.67;52.43
21129;BME280;10722;51.910;8.352;2022-09-12T13:18:53;100573.56;;;26.78;50.11
21129;BME280;10722;51.910;8.352;2022-09-12T13:21:37;100587.09;;;25.27;52.54
21129;BME280;10722;51.910;8.352;2022-09-12T13:24:22;100564.34;;;25.61;51.16
21129;BME280;10722;51.910;8.352;2022-09-12T13:27:19;100580.22;;;24.83;52.75
21129;BME280;10722;51.910;8.352;2022-09-12T13:30:14;100589.91;;;24.63;54.27
21129;BME280;10722;51.910;8.352;2022-09-12T13:33:08;100588.66;;;24.51;54.23
21129;BME280;10722;51.910;8.352;2022-09-12T13:36:34;100578.88;;;24.53;53.66
21129;BME280;10722;51.910;8.352;2022-09-12T13:39:47;100589.31;;;24.13;54.77
21129;BME280;10722;51.910;8.352;2022-09-12T13:42:47;100570.63;;;23.96;53.90
21129;BME280;10722;51.910;8.352;2022-09-12T13:45:35;100571.84;;;23.42;54.31
21129;BME280;10722;51.910;8.352;2022-09-12T13:48:23;100577.69;;;23.74;54.74
21129;BME280;10722;51.910;8.352;2022-09-12T13:51:21;100569.19;;;23.65;54.89
21129;BME280;10722;51.910;8.352;2022-09-12T13:54:06;100581.00;;;23.79;55.25
21129;BME280;10722;51.910;8.352;2022-09-12T13:56:52;100585.50;;;23.77;55.38
21129;BME280;10722;51.910;8.352;2022-09-12T13:59:40;100582.53;;;23.84;55.50
21129;BME280;10722;51.910;8.352;2022-09-12T14:02:28;100579.56;;;23.70;55.40
21129;BME280;10722;51.910;8.352;2022-09-12T14:05:20;100618.28;;;23.93;57.71
21129;BME280;10722;51.910;8.352;2022-09-12T14:08:07;100571.28;;;24.01;55.32
21129;BME280;10722;51.910;8.352;2022-09-12T14:10:52;100505.06;;;23.84;52.40
21129;BME280;10722;51.910;8.352;2022-09-12T14:13:38;100540.44;;;23.58;54.51
21129;BME280;10722;51.910;8.352;2022-09-12T14:16:23;100526.81;;;23.90;53.54
21129;BME280;10722;51.910;8.352;2022-09-12T14:19:09;100530.88;;;23.99;53.44
21129;BME280;10722;51.910;8.352;2022-09-12T14:21:55;100502.94;;;23.93;52.62
21129;BME280;10722;51.910;8.352;2022-09-12T14:24:45;100509.84;;;23.52;52.82
21129;BME280;10722;51.910;8.352;2022-09-12T14:27:40;100517.13;;;23.23;53.17
21129;BME280;10722;51.910;8.352;2022-09-12T14:30:29;100523.66;;;23.13;54.10
21129;BME280;10722;51.910;8.352;2022-09-12T14:33:19;100527.34;;;23.09;54.37
21129;BME280;10722;51.910;8.352;2022-09-12T14:36:09;100524.41;;;23.17;54.42
21129;BME280;10722;51.910;8.352;2022-09-12T14:38:58;100515.75;;;23.13;53.76
21129;BME280;10722;51.910;8.352;2022-09-12T14:41:45;100518.03;;;23.22;54.05
21129;BME280;10722;51.910;8.352;2022-09-12T14:44:31;100521.19;;;23.32;54.80
21129;BME280;10722;51.910;8.352;2022-09-12T14:47:23;100533.03;;;23.44;54.62
21129;BME280;10722;51.910;8.352;2022-09-12T14:50:18;100516.28;;;23.45;54.10
21129;BME280;10722;51.910;8.352;2022-09-12T14:53:36;100519.91;;;23.64;54.64
21129;BME280;10722;51.910;8.352;2022-09-12T14:56:37;100506.03;;;23.59;53.73
21129;BME280;10722;51.910;8.352;2022-09-12T14:59:43;100519.84;;;23.44;55.06
21129;BME280;10722;51.910;8.352;2022-09-12T15:02:28;100504.56;;;23.52;53.89
21129;BME280;10722;51.910;8.352;2022-09-12T15:05:16;100501.63;;;23.60;53.44
21129;BME280;10722;51.910;8.352;2022-09-12T15:08:02;100505.16;;;23.59;53.59
21129;BME280;10722;51.910;8.352;2022-09-12T15:10:47;100504.91;;;23.65;53.72
21129;BME280;10722;51.910;8.352;2022-09-12T15:13:38;100502.34;;;23.63;53.64
21129;BME280;10722;51.910;8.352;2022-09-12T15:16:24;100484.25;;;23.32;53.43
21129;BME280;10722;51.910;8.352;2022-09-12T15:19:09;100497.34;;;23.34;54.40
21129;BME280;10722;51.910;8.352;2022-09-12T15:21:55;100494.84;;;23.31;54.60
21129;BME280;10722;51.910;8.352;2022-09-12T15:24:40;100488.88;;;23.25;54.71
21129;BME280;10722;51.910;8.352;2022-09-12T15:27:25;100497.72;;;23.24;55.60
21129;BME280;10722;51.910;8.352;2022-09-12T15:30:11;100490.53;;;23.06;55.58
21129;BME280;10722;51.910;8.352;2022-09-12T15:32:57;100499.47;;;23.02;55.90
21129;BME280;10722;51.910;8.352;2022-09-12T15:35:42;100490.41;;;23.09;56.18
21129;BME280;10722;51.910;8.352;2022-09-12T15:38:28;100489.53;;;23.09;55.67
21129;BME280;10722;51.910;8.352;2022-09-12T15:41:16;100490.53;;;23.06;56.16
21129;BME280;10722;51.910;8.352;2022-09-12T15:44:06;100493.88;;;23.33;56.21
21129;BME280;10722;51.910;8.352;2022-09-12T15:46:54;100482.16;;;23.40;55.46
21129;BME280;10722;51.910;8.352;2022-09-12T15:49:39;100477.03;;;23.36;55.43
21129;BME280;10722;51.910;8.352;2022-09-12T15:52:25;100464.09;;;23.30;54.41
21129;BME280;10722;51.910;8.352;2022-09-12T15:55:19;100459.06;;;23.23;54.62
21129;BME280;10722;51.910;8.352;2022-09-12T15:58:05;100479.41;;;23.43;55.40
21129;BME280;10722;51.910;8.352;2022-09-12T16:00:51;100479.75;;;23.56;55.07
21129;BME280;10722;51.910;8.352;2022-09-12T16:03:36;100468.94;;;23.62;54.94
21129;BME280;10722;51.910;8.352;2022-09-12T16:06:22;100458.50;;;23.59;54.63
21129;BME280;10722;51.910;8.352;2022-09-12T16:09:07;100467.94;;;23.65;55.11
21129;BME280;10722;51.910;8.352;2022-09-12T16:11:53;100445.38;;;23.80;54.03
21129;BME280;10722;51.910;8.352;2022-09-12T16:14:40;100441.81;;;23.81;53.35
21129;BME280;10722;51.910;8.352;2022-09-12T16:17:25;100424.38;;;23.77;52.98
21129;BME280;10722;51.910;8.352;2022-09-12T16:20:11;100440.09;;;23.58;54.38
21129;BME280;10722;51.910;8.352;2022-09-12T16:22:56;100467.44;;;23.57;56.18
21129;BME280;10722;51.910;8.352;2022-09-12T16:25:42;100454.75;;;23.21;56.19
21129;BME280;10722;51.910;8.352;2022-09-12T16:28:28;100429.28;;;22.98;55.45
21129;BME280;10722;51.910;8.352;2022-09-12T16:31:13;100447.25;;;22.87;56.81
21129;BME280;10722;51.910;8.352;2022-09-12T16:33:58;100451.16;;;23.00;57.06
21129;BME280;10722;51.910;8.352;2022-09-12T16:36:43;100479.97;;;23.06;59.33